createdAt,value
2022-10-05T00:00:24.270Z,10.100000
2022-10-05T00:05:27.454Z,10.100000
2022-10-05T00:10:23.957Z,10.100000
2022-10-05T00:15:23.939Z,10.110000
2022-10-05T00:20:24.977Z,10.200000
2022-10-05T00:25:24.564Z,10.281818
2022-10-05T00:30:19.126Z,10.300000
2022-10-05T00:35:24.405Z,10.300000
2022-10-05T00:40:25.522Z,10.300000
2022-10-05T00:45:24.512Z,10.400000
2022-10-05T00:50:19.641Z,10.363636
2022-10-05T00:55:24.391Z,10.177778
2022-10-05T01:00:25.941Z,9.916667
2022-10-05T01:05:24.489Z,9.800000
2022-10-05T01:10:19.988Z,9.800000
2022-10-05T01:15:24.474Z,9.863636
2022-10-05T01:20:26.569Z,9.945455
2022-10-05T01:25:24.563Z,10.080000
2022-10-05T01:30:20.680Z,10.200000
2022-10-05T01:35:24.484Z,10.200000
2022-10-05T01:40:27.180Z,10.130000
2022-10-05T01:45:24.667Z,9.960000
2022-10-05T01:50:21.219Z,9.853846
2022-10-05T01:55:24.546Z,9.800000
2022-10-05T02:00:27.361Z,9.709091
2022-10-05T02:05:24.400Z,9.700000
2022-10-05T02:10:24.437Z,9.600000
2022-10-05T02:15:24.693Z,9.600000
2022-10-05T02:20:24.523Z,9.600000
2022-10-05T02:25:19.068Z,9.500000
2022-10-05T02:30:24.685Z,9.445455
2022-10-05T02:35:25.232Z,9.400000
2022-10-05T02:40:24.991Z,9.400000
2022-10-05T02:45:19.384Z,9.400000
2022-10-05T02:50:24.889Z,9.400000
2022-10-05T02:55:25.707Z,9.400000
2022-10-05T03:00:24.893Z,9.400000
2022-10-05T03:05:19.675Z,9.400000
2022-10-05T03:10:24.953Z,9.400000
2022-10-05T03:15:26.027Z,9.400000
2022-10-05T03:20:24.894Z,9.372727
2022-10-05T03:25:20.729Z,9.272727
2022-10-05T03:30:24.936Z,9.175000
2022-10-05T03:35:26.696Z,9.100000
2022-10-05T03:40:26.041Z,9.100000
2022-10-05T03:45:21.124Z,9.100000
2022-10-05T03:50:25.363Z,9.025000
2022-10-05T03:55:27.181Z,9.000000
2022-10-05T04:00:25.438Z,9.000000
2022-10-05T04:05:21.542Z,9.000000
2022-10-05T04:10:25.347Z,9.000000
2022-10-05T04:15:27.657Z,9.050000
2022-10-05T04:20:18.966Z,9.100000
2022-10-05T04:25:22.092Z,9.208333
2022-10-05T04:30:25.292Z,9.336364
2022-10-05T04:35:28.393Z,9.460000
2022-10-05T04:40:19.397Z,9.560000
2022-10-05T04:45:22.540Z,9.725000
2022-10-05T04:50:25.872Z,9.877778
2022-10-05T04:55:25.916Z,10.016667
2022-10-05T05:00:19.809Z,10.218182
2022-10-05T05:05:25.814Z,10.410000
2022-10-05T05:10:26.122Z,10.588889
2022-10-05T05:15:25.917Z,10.855556
2022-10-05T05:20:20.633Z,11.141667
2022-10-05T05:25:25.753Z,11.525000
2022-10-05T05:30:26.803Z,11.854545
2022-10-05T05:35:29.963Z,12.080000
2022-10-05T05:40:21.093Z,12.215385
2022-10-05T05:45:25.839Z,12.350000
2022-10-05T05:50:27.349Z,12.370000
2022-10-05T05:55:29.878Z,12.200000
2022-10-05T06:00:21.490Z,11.958333
2022-10-05T06:05:25.913Z,11.727273
2022-10-05T06:10:27.807Z,11.541667
2022-10-05T06:15:25.997Z,11.422222
2022-10-05T06:20:22.053Z,11.300000
2022-10-05T06:25:25.850Z,11.160000
2022-10-05T06:30:29.083Z,11.027273
2022-10-05T06:35:19.424Z,10.900000
2022-10-05T06:40:22.517Z,10.900000
2022-10-05T06:45:26.036Z,10.990909
2022-10-05T06:50:28.872Z,11.277778
2022-10-05T06:55:19.957Z,11.500000
2022-10-05T07:00:25.882Z,11.600000
2022-10-05T07:05:26.085Z,11.740000
2022-10-05T07:10:29.183Z,11.925000
2022-10-05T07:15:20.244Z,12.150000
2022-10-05T07:20:25.870Z,12.325000
2022-10-05T07:25:27.010Z,12.750000
2022-10-05T07:30:25.805Z,13.242857
2022-10-05T07:35:20.933Z,13.822222
2022-10-05T07:40:24.039Z,14.220000
2022-10-05T07:45:27.415Z,14.411111
2022-10-05T07:50:25.988Z,14.618182
2022-10-05T07:55:21.476Z,14.845455
2022-10-05T08:00:24.694Z,15.063636
2022-10-05T08:05:27.593Z,15.277778
2022-10-05T08:10:25.818Z,15.380000
2022-10-05T08:15:21.926Z,15.480000
2022-10-05T08:20:25.841Z,15.550000
2022-10-05T08:25:28.535Z,15.600000
2022-10-05T08:30:19.422Z,15.600000
2022-10-05T08:35:22.502Z,15.700000
2022-10-05T08:40:25.866Z,15.800000
2022-10-05T08:45:29.003Z,15.800000
2022-10-05T08:50:19.886Z,15.800000
2022-10-05T08:55:22.854Z,15.941667
2022-10-05T09:00:26.100Z,16.218182
2022-10-05T09:05:25.822Z,16.418182
2022-10-05T09:10:20.220Z,16.500000
2022-10-05T09:15:26.746Z,16.590000
2022-10-05T09:20:26.793Z,16.645455
2022-10-05T09:25:25.942Z,16.850000
2022-10-05T09:30:20.814Z,17.058333
2022-10-05T09:35:25.818Z,17.300000
2022-10-05T09:40:27.240Z,17.320000
2022-10-05T09:45:25.933Z,17.466667
2022-10-05T09:50:21.270Z,17.500000
2022-10-05T09:55:25.965Z,17.509091
2022-10-05T10:00:27.667Z,17.400000
2022-10-05T10:05:25.817Z,17.510000
2022-10-05T10:10:21.596Z,17.890909
2022-10-05T10:15:25.858Z,18.122222
2022-10-05T10:20:28.451Z,18.091667
2022-10-05T10:25:20.097Z,17.763636
2022-10-05T10:30:24.107Z,17.700000
2022-10-05T10:35:25.992Z,17.725000
2022-10-05T10:40:28.763Z,17.840000
2022-10-05T10:45:19.891Z,17.900000
2022-10-05T10:50:23.473Z,18.025000
2022-10-05T10:55:26.198Z,18.100000
2022-10-05T11:00:29.243Z,18.183333
2022-10-05T11:05:20.170Z,18.380000
2022-10-05T11:10:25.833Z,18.490909
2022-10-05T11:15:26.517Z,18.600000
2022-10-05T11:20:25.940Z,18.633333
2022-10-05T11:25:21.137Z,18.750000
2022-10-05T11:30:24.248Z,18.833333
2022-10-05T11:35:27.149Z,18.990000
2022-10-05T11:40:26.398Z,19.088889
2022-10-05T11:45:21.431Z,18.781818
2022-10-05T11:50:26.331Z,18.275000
2022-10-05T11:55:27.462Z,17.812500
2022-10-05T12:00:26.309Z,17.660000
2022-10-05T12:05:21.593Z,17.600000
2022-10-05T12:10:24.871Z,17.600000
2022-10-05T12:15:27.932Z,17.650000
2022-10-05T12:20:19.357Z,17.616667
2022-10-05T12:25:23.229Z,17.460000
2022-10-05T12:30:26.329Z,17.284615
2022-10-05T12:35:47.076Z,17.170000
2022-10-05T12:40:19.748Z,17.009091
2022-10-05T12:45:22.892Z,16.960000
2022-10-05T12:50:26.242Z,16.920000
2022-10-05T12:55:29.302Z,16.950000
2022-10-05T13:00:22.915Z,16.900000
2022-10-05T13:05:23.282Z,16.933333
2022-10-05T13:10:26.349Z,16.938462
2022-10-05T13:15:26.262Z,16.840000
2022-10-05T13:20:21.677Z,16.627273
2022-10-05T13:25:26.304Z,16.418182
2022-10-05T13:30:26.914Z,16.300000
2022-10-05T13:35:26.543Z,16.300000
2022-10-05T13:40:21.134Z,16.444444
2022-10-05T13:45:26.327Z,16.563636
2022-10-05T13:50:29.735Z,16.641667
2022-10-05T13:55:26.285Z,16.700000
2022-10-05T14:00:26.390Z,16.700000
2022-10-05T14:05:26.349Z,16.700000
2022-10-05T14:10:27.777Z,16.681818
2022-10-05T14:15:18.775Z,16.566667
2022-10-05T14:20:23.493Z,16.450000
2022-10-05T14:25:26.325Z,16.345455
2022-10-05T14:30:28.619Z,16.236364
2022-10-05T14:35:19.674Z,16.170000
2022-10-05T14:40:22.797Z,16.070000
2022-10-05T14:45:26.542Z,15.981818
2022-10-05T14:50:29.043Z,15.850000
2022-10-05T14:55:20.038Z,15.772727
2022-10-05T15:00:23.212Z,15.700000
2022-10-05T15:05:38.441Z,15.630000
2022-10-05T15:10:26.344Z,15.581818
2022-10-05T15:15:20.447Z,15.463636
2022-10-05T15:20:26.247Z,15.370000
2022-10-05T15:25:26.824Z,15.260000
2022-10-05T15:30:26.361Z,15.184615
2022-10-05T15:35:20.975Z,15.100000
2022-10-05T15:40:26.302Z,15.100000
2022-10-05T15:45:27.299Z,15.040000
2022-10-05T15:50:30.501Z,14.966667
2022-10-05T15:55:21.485Z,14.809091
2022-10-05T16:00:26.317Z,14.670000
2022-10-05T16:05:27.567Z,14.562500
2022-10-05T16:10:26.383Z,14.500000
2022-10-05T16:15:21.728Z,14.500000
2022-10-05T16:20:26.314Z,14.560000
2022-10-05T16:25:28.223Z,14.600000
2022-10-05T16:30:19.161Z,14.481818
2022-10-05T16:35:22.333Z,14.363636
2022-10-05T16:40:26.764Z,14.227273
2022-10-05T16:45:28.601Z,14.100000
2022-10-05T16:50:19.634Z,13.922222
2022-10-05T16:55:22.750Z,13.627273
2022-10-05T17:00:26.758Z,13.133333
2022-10-05T17:05:29.093Z,12.622222
2022-10-05T17:10:20.629Z,12.136364
2022-10-05T17:15:23.287Z,11.860000
2022-10-05T17:20:26.456Z,11.750000
2022-10-05T17:25:29.517Z,11.530000
2022-10-05T17:30:20.661Z,11.137500
2022-10-05T17:35:23.954Z,10.842857
2022-10-05T17:40:28.577Z,10.684615
2022-10-05T17:45:29.942Z,10.663636
2022-10-05T17:50:20.930Z,10.733333
2022-10-05T17:55:24.100Z,10.790909
2022-10-05T18:00:40.022Z,10.792308
2022-10-05T18:05:27.468Z,10.672727
2022-10-05T18:10:21.447Z,10.487500
2022-10-05T18:15:24.453Z,10.263636
2022-10-05T18:20:27.799Z,10.200000
2022-10-05T18:25:27.268Z,10.160000
2022-10-05T18:30:21.947Z,10.050000
2022-10-05T18:35:27.619Z,10.000000
2022-10-05T18:40:28.488Z,9.933333
2022-10-05T18:45:19.237Z,10.000000
2022-10-05T18:50:22.243Z,9.963636
2022-10-05T18:55:27.676Z,9.812500
2022-10-05T19:00:28.641Z,9.633333
2022-10-05T19:05:45.800Z,9.680000
2022-10-05T19:10:22.931Z,9.866667
2022-10-05T19:15:25.921Z,9.837500
2022-10-05T19:20:29.391Z,9.600000
2022-10-05T19:25:20.506Z,9.500000
2022-10-05T19:30:23.285Z,9.590909
2022-10-05T19:35:27.970Z,9.572727
2022-10-05T19:40:29.545Z,9.500000
2022-10-05T19:45:20.548Z,9.530000
2022-10-05T19:50:23.921Z,9.490909
2022-10-05T19:55:28.108Z,9.377778
2022-10-05T20:00:30.069Z,9.210000
2022-10-05T20:05:20.892Z,9.200000
2022-10-05T20:10:24.742Z,9.130000
2022-10-05T20:15:28.015Z,9.055556
2022-10-05T20:20:31.026Z,9.000000
2022-10-05T20:25:21.952Z,8.927273
2022-10-05T20:30:25.024Z,8.930000
2022-10-05T20:35:28.476Z,9.085714
2022-10-05T20:40:19.232Z,9.069231
2022-10-05T20:45:22.306Z,8.862500
2022-10-05T20:50:25.367Z,8.730000
2022-10-05T20:55:28.569Z,8.609091
2022-10-05T21:00:19.515Z,8.445455
2022-10-05T21:05:22.971Z,8.340000
2022-10-05T21:10:28.768Z,8.336364
2022-10-05T21:15:28.953Z,8.550000
2022-10-05T21:20:20.279Z,8.690909
2022-10-05T21:25:23.431Z,8.700000
2022-10-05T21:30:28.510Z,8.808333
2022-10-05T21:35:29.806Z,8.988889
2022-10-05T21:40:20.650Z,8.977778
2022-10-05T21:45:23.908Z,8.900000
2022-10-05T21:50:28.856Z,8.933333
2022-10-05T21:55:30.260Z,9.000000
2022-10-05T22:00:21.118Z,9.000000
2022-10-05T22:05:24.355Z,9.000000
2022-10-05T22:10:28.078Z,9.000000
2022-10-05T22:15:30.597Z,9.020000
2022-10-05T22:20:21.847Z,9.136364
2022-10-05T22:25:25.052Z,9.269231
2022-10-05T22:30:28.823Z,9.337500
2022-10-05T22:35:19.140Z,9.510000
2022-10-05T22:40:22.273Z,9.737500
2022-10-05T22:45:29.150Z,9.925000
2022-10-05T22:50:28.593Z,10.080000
2022-10-05T22:55:19.604Z,10.100000
2022-10-05T23:00:35.239Z,10.033333
2022-10-05T23:05:25.804Z,10.054545
2022-10-05T23:10:29.294Z,10.009091
2022-10-05T23:15:20.109Z,9.700000
2022-10-05T23:20:23.409Z,9.509091
2022-10-05T23:25:29.237Z,9.572727
2022-10-05T23:30:29.831Z,9.700000
2022-10-05T23:35:20.698Z,9.700000
2022-10-05T23:40:23.804Z,9.658333
2022-10-05T23:45:29.739Z,9.441667
2022-10-05T23:50:30.055Z,9.127273
2022-10-05T23:55:21.117Z,9.041667
